sensor_id;sensor_type;location;lat;lon;timestamp;P1;durP1;ratioP1;P2;durP2;ratioP2
40314;SDS011;26021;45.640;11.302;2023-12-20T00:00:21;12.35;;;7.68;;
40314;SDS011;26021;45.640;11.302;2023-12-20T00:02:46;12.63;;;8.55;;
40314;SDS011;26021;45.640;11.302;2023-12-20T00:05:14;12.25;;;8.25;;
40314;SDS011;26021;45.640;11.302;2023-12-20T00:07:40;9.70;;;6.22;;
40314;SDS011;26021;45.640;11.302;2023-12-20T00:10:05;15.15;;;7.35;;
40314;SDS011;26021;45.640;11.302;2023-12-20T00:12:32;10.07;;;7.00;;
40314;SDS011;26021;45.640;11.302;2023-12-20T00:14:57;9.65;;;6.68;;
40314;SDS011;26021;45.640;11.302;2023-12-20T00:17:23;11.65;;;6.97;;
40314;SDS011;26021;45.640;11.302;2023-12-20T00:19:48;9.98;;;6.72;;
40314;SDS011;26021;45.640;11.302;2023-12-20T00:22:14;12.68;;;8.10;;
40314;SDS011;26021;45.640;11.302;2023-12-20T00:24:39;12.30;;;7.80;;
40314;SDS011;26021;45.640;11.302;2023-12-20T00:27:05;10.40;;;7.22;;
40314;SDS011;26021;45.640;11.302;2023-12-20T00:29:30;12.85;;;7.35;;
40314;SDS011;26021;45.640;11.302;2023-12-20T00:31:56;12.15;;;7.00;;
40314;SDS011;26021;45.640;11.302;2023-12-20T00:34:21;10.40;;;7.07;;
40314;SDS011;26021;45.640;11.302;2023-12-20T00:36:46;10.15;;;6.53;;
40314;SDS011;26021;45.640;11.302;2023-12-20T00:39:12;10.65;;;6.97;;
40314;SDS011;26021;45.640;11.302;2023-12-20T00:41:37;12.60;;;6.75;;
40314;SDS011;26021;45.640;11.302;2023-12-20T00:44:03;9.23;;;6.15;;
40314;SDS011;26021;45.640;11.302;2023-12-20T00:46:29;11.13;;;7.18;;
40314;SDS011;26021;45.640;11.302;2023-12-20T00:48:54;11.20;;;6.60;;
40314;SDS011;26021;45.640;11.302;2023-12-20T00:51:19;8.52;;;5.82;;
40314;SDS011;26021;45.640;11.302;2023-12-20T00:53:45;9.27;;;5.45;;
40314;SDS011;26021;45.640;11.302;2023-12-20T00:56:14;9.20;;;5.68;;
40314;SDS011;26021;45.640;11.302;2023-12-20T00:58:39;8.38;;;5.70;;
40314;SDS011;26021;45.640;11.302;2023-12-20T01:01:05;8.55;;;6.38;;
40314;SDS011;26021;45.640;11.302;2023-12-20T01:03:30;8.63;;;6.28;;
40314;SDS011;26021;45.640;11.302;2023-12-20T01:05:55;8.90;;;5.55;;
40314;SDS011;26021;45.640;11.302;2023-12-20T01:08:21;8.48;;;5.68;;
40314;SDS011;26021;45.640;11.302;2023-12-20T01:10:47;7.45;;;5.07;;
40314;SDS011;26021;45.640;11.302;2023-12-20T01:13:12;7.03;;;5.15;;
40314;SDS011;26021;45.640;11.302;2023-12-20T01:15:38;9.95;;;4.72;;
40314;SDS011;26021;45.640;11.302;2023-12-20T01:18:03;5.45;;;4.63;;
40314;SDS011;26021;45.640;11.302;2023-12-20T01:20:29;7.65;;;4.93;;
40314;SDS011;26021;45.640;11.302;2023-12-20T01:22:54;6.32;;;4.28;;
40314;SDS011;26021;45.640;11.302;2023-12-20T01:25:20;6.55;;;4.47;;
40314;SDS011;26021;45.640;11.302;2023-12-20T01:27:45;5.55;;;4.25;;
40314;SDS011;26021;45.640;11.302;2023-12-20T01:30:11;7.95;;;4.45;;
40314;SDS011;26021;45.640;11.302;2023-12-20T01:32:36;5.32;;;4.00;;
40314;SDS011;26021;45.640;11.302;2023-12-20T01:35:02;7.20;;;4.72;;
40314;SDS011;26021;45.640;11.302;2023-12-20T01:37:27;7.22;;;4.15;;
40314;SDS011;26021;45.640;11.302;2023-12-20T01:39:54;6.80;;;4.78;;
40314;SDS011;26021;45.640;11.302;2023-12-20T01:42:19;7.78;;;4.40;;
40314;SDS011;26021;45.640;11.302;2023-12-20T01:44:45;6.40;;;4.28;;
40314;SDS011;26021;45.640;11.302;2023-12-20T01:47:10;5.18;;;4.07;;
40314;SDS011;26021;45.640;11.302;2023-12-20T01:49:36;7.72;;;4.65;;
40314;SDS011;26021;45.640;11.302;2023-12-20T01:52:02;7.28;;;4.15;;
40314;SDS011;26021;45.640;11.302;2023-12-20T01:54:28;6.55;;;4.22;;
40314;SDS011;26021;45.640;11.302;2023-12-20T01:56:54;7.07;;;4.50;;
40314;SDS011;26021;45.640;11.302;2023-12-20T01:59:20;9.25;;;4.80;;
40314;SDS011;26021;45.640;11.302;2023-12-20T02:01:46;6.88;;;4.63;;
40314;SDS011;26021;45.640;11.302;2023-12-20T02:04:12;6.20;;;4.50;;
40314;SDS011;26021;45.640;11.302;2023-12-20T02:06:38;7.10;;;4.28;;
40314;SDS011;26021;45.640;11.302;2023-12-20T02:09:05;4.80;;;4.10;;
40314;SDS011;26021;45.640;11.302;2023-12-20T02:11:32;6.57;;;4.57;;
40314;SDS011;26021;45.640;11.302;2023-12-20T02:13:58;5.65;;;3.95;;
40314;SDS011;26021;45.640;11.302;2023-12-20T02:16:23;6.63;;;4.10;;
40314;SDS011;26021;45.640;11.302;2023-12-20T02:18:49;7.65;;;3.45;;
40314;SDS011;26021;45.640;11.302;2023-12-20T02:21:14;4.63;;;3.22;;
40314;SDS011;26021;45.640;11.302;2023-12-20T02:23:40;5.40;;;3.42;;
40314;SDS011;26021;45.640;11.302;2023-12-20T02:26:05;4.80;;;4.15;;
40314;SDS011;26021;45.640;11.302;2023-12-20T02:28:32;5.15;;;4.03;;
40314;SDS011;26021;45.640;11.302;2023-12-20T02:30:57;4.75;;;3.67;;
40314;SDS011;26021;45.640;11.302;2023-12-20T02:33:23;5.05;;;4.00;;
40314;SDS011;26021;45.640;11.302;2023-12-20T02:35:48;4.32;;;3.38;;
40314;SDS011;26021;45.640;11.302;2023-12-20T02:38:13;4.90;;;3.63;;
40314;SDS011;26021;45.640;11.302;2023-12-20T02:40:39;4.10;;;3.20;;
40314;SDS011;26021;45.640;11.302;2023-12-20T02:43:04;4.63;;;2.78;;
40314;SDS011;26021;45.640;11.302;2023-12-20T02:45:30;4.90;;;2.83;;
40314;SDS011;26021;45.640;11.302;2023-12-20T02:47:55;4.40;;;3.05;;
40314;SDS011;26021;45.640;11.302;2023-12-20T02:50:21;4.97;;;3.58;;
40314;SDS011;26021;45.640;11.302;2023-12-20T02:52:47;5.78;;;3.83;;
40314;SDS011;26021;45.640;11.302;2023-12-20T02:55:12;6.55;;;4.00;;
40314;SDS011;26021;45.640;11.302;2023-12-20T02:57:38;8.13;;;4.30;;
40314;SDS011;26021;45.640;11.302;2023-12-20T03:00:07;5.95;;;4.15;;
40314;SDS011;26021;45.640;11.302;2023-12-20T03:02:36;6.55;;;4.10;;
40314;SDS011;26021;45.640;11.302;2023-12-20T03:05:02;5.68;;;3.95;;
40314;SDS011;26021;45.640;11.302;2023-12-20T03:07:27;5.28;;;3.55;;
40314;SDS011;26021;45.640;11.302;2023-12-20T03:09:53;5.63;;;3.83;;
40314;SDS011;26021;45.640;11.302;2023-12-20T03:12:18;3.80;;;3.17;;
40314;SDS011;26021;45.640;11.302;2023-12-20T03:14:44;3.97;;;3.38;;
40314;SDS011;26021;45.640;11.302;2023-12-20T03:17:09;3.63;;;2.97;;
40314;SDS011;26021;45.640;11.302;2023-12-20T03:19:35;5.53;;;3.35;;
40314;SDS011;26021;45.640;11.302;2023-12-20T03:22:01;3.85;;;3.05;;
40314;SDS011;26021;45.640;11.302;2023-12-20T03:24:26;4.43;;;3.20;;
40314;SDS011;26021;45.640;11.302;2023-12-20T03:26:52;6.00;;;3.67;;
40314;SDS011;26021;45.640;11.302;2023-12-20T03:29:18;5.60;;;3.55;;
40314;SDS011;26021;45.640;11.302;2023-12-20T03:31:44;4.28;;;3.65;;
40314;SDS011;26021;45.640;11.302;2023-12-20T03:34:10;3.42;;;3.10;;
40314;SDS011;26021;45.640;11.302;2023-12-20T03:36:36;4.25;;;2.95;;
40314;SDS011;26021;45.640;11.302;2023-12-20T03:39:01;3.80;;;3.03;;
40314;SDS011;26021;45.640;11.302;2023-12-20T03:41:27;4.38;;;3.58;;
40314;SDS011;26021;45.640;11.302;2023-12-20T03:43:53;7.13;;;3.90;;
40314;SDS011;26021;45.640;11.302;2023-12-20T03:46:18;4.20;;;3.42;;
40314;SDS011;26021;45.640;11.302;2023-12-20T03:48:44;6.20;;;3.95;;
40314;SDS011;26021;45.640;11.302;2023-12-20T03:51:09;4.22;;;3.55;;
40314;SDS011;26021;45.640;11.302;2023-12-20T03:53:35;3.50;;;2.30;;
40314;SDS011;26021;45.640;11.302;2023-12-20T03:56:00;3.80;;;2.90;;
40314;SDS011;26021;45.640;11.302;2023-12-20T03:58:26;3.75;;;2.80;;
40314;SDS011;26021;45.640;11.302;2023-12-20T04:00:51;4.28;;;3.40;;
40314;SDS011;26021;45.640;11.302;2023-12-20T04:03:17;4.03;;;2.70;;
40314;SDS011;26021;45.640;11.302;2023-12-20T04:05:42;4.57;;;2.58;;
40314;SDS011;26021;45.640;11.302;2023-12-20T04:08:09;4.95;;;2.78;;
40314;SDS011;26021;45.640;11.302;2023-12-20T04:10:35;3.22;;;2.50;;
40314;SDS011;26021;45.640;11.302;2023-12-20T04:13:02;4.55;;;3.17;;
40314;SDS011;26021;45.640;11.302;2023-12-20T04:15:28;2.60;;;2.40;;
40314;SDS011;26021;45.640;11.302;2023-12-20T04:17:53;3.08;;;2.63;;
40314;SDS011;26021;45.640;11.302;2023-12-20T04:20:19;3.63;;;2.63;;
40314;SDS011;26021;45.640;11.302;2023-12-20T04:22:44;4.25;;;3.17;;
40314;SDS011;26021;45.640;11.302;2023-12-20T04:25:10;6.15;;;4.05;;
40314;SDS011;26021;45.640;11.302;2023-12-20T04:27:35;6.00;;;4.00;;
40314;SDS011;26021;45.640;11.302;2023-12-20T04:30:00;4.05;;;3.33;;
40314;SDS011;26021;45.640;11.302;2023-12-20T04:32:26;4.90;;;4.05;;
40314;SDS011;26021;45.640;11.302;2023-12-20T04:34:51;4.53;;;3.47;;
40314;SDS011;26021;45.640;11.302;2023-12-20T04:37:17;106.13;;;93.28;;
40314;SDS011;26021;45.640;11.302;2023-12-20T04:39:42;42.92;;;36.97;;
40314;SDS011;26021;45.640;11.302;2023-12-20T04:42:08;7.97;;;6.65;;
40314;SDS011;26021;45.640;11.302;2023-12-20T04:44:33;5.38;;;4.00;;
40314;SDS011;26021;45.640;11.302;2023-12-20T04:46:59;6.40;;;3.30;;
40314;SDS011;26021;45.640;11.302;2023-12-20T04:49:25;3.42;;;3.13;;
40314;SDS011;26021;45.640;11.302;2023-12-20T04:51:50;5.95;;;3.13;;
40314;SDS011;26021;45.640;11.302;2023-12-20T04:54:15;7.15;;;3.42;;
40314;SDS011;26021;45.640;11.302;2023-12-20T04:59:25;9.02;;;4.32;;
40314;SDS011;26021;45.640;11.302;2023-12-20T05:01:50;5.30;;;3.70;;
40314;SDS011;26021;45.640;11.302;2023-12-20T05:04:16;9.85;;;5.43;;
40314;SDS011;26021;45.640;11.302;2023-12-20T05:06:42;7.07;;;4.88;;
40314;SDS011;26021;45.640;11.302;2023-12-20T05:09:07;7.90;;;5.35;;
40314;SDS011;26021;45.640;11.302;2023-12-20T05:11:34;4.93;;;4.07;;
40314;SDS011;26021;45.640;11.302;2023-12-20T05:13:59;5.47;;;4.30;;
40314;SDS011;26021;45.640;11.302;2023-12-20T05:16:25;5.28;;;4.63;;
40314;SDS011;26021;45.640;11.302;2023-12-20T05:18:50;6.07;;;4.38;;
40314;SDS011;26021;45.640;11.302;2023-12-20T05:21:17;7.07;;;4.10;;
40314;SDS011;26021;45.640;11.302;2023-12-20T05:23:43;4.15;;;3.63;;
40314;SDS011;26021;45.640;11.302;2023-12-20T05:26:08;5.50;;;3.72;;
40314;SDS011;26021;45.640;11.302;2023-12-20T05:28:33;4.53;;;3.03;;
40314;SDS011;26021;45.640;11.302;2023-12-20T05:30:59;4.68;;;3.67;;
40314;SDS011;26021;45.640;11.302;2023-12-20T05:33:24;5.35;;;4.10;;
40314;SDS011;26021;45.640;11.302;2023-12-20T05:35:50;4.88;;;3.67;;
40314;SDS011;26021;45.640;11.302;2023-12-20T05:38:15;7.07;;;5.47;;
40314;SDS011;26021;45.640;11.302;2023-12-20T05:40:41;6.38;;;5.43;;
40314;SDS011;26021;45.640;11.302;2023-12-20T05:43:07;6.63;;;5.20;;
40314;SDS011;26021;45.640;11.302;2023-12-20T05:45:32;8.60;;;4.80;;
40314;SDS011;26021;45.640;11.302;2023-12-20T05:47:58;10.55;;;5.68;;
40314;SDS011;26021;45.640;11.302;2023-12-20T05:50:23;5.20;;;4.63;;
40314;SDS011;26021;45.640;11.302;2023-12-20T05:52:49;7.43;;;5.47;;
40314;SDS011;26021;45.640;11.302;2023-12-20T05:55:15;10.20;;;6.75;;
40314;SDS011;26021;45.640;11.302;2023-12-20T05:57:40;12.98;;;7.95;;
40314;SDS011;26021;45.640;11.302;2023-12-20T06:00:08;11.57;;;7.38;;
40314;SDS011;26021;45.640;11.302;2023-12-20T06:02:34;16.60;;;10.30;;
40314;SDS011;26021;45.640;11.302;2023-12-20T06:05:01;12.15;;;7.82;;
40314;SDS011;26021;45.640;11.302;2023-12-20T06:07:27;14.10;;;9.85;;
40314;SDS011;26021;45.640;11.302;2023-12-20T06:09:53;9.32;;;6.82;;
40314;SDS011;26021;45.640;11.302;2023-12-20T06:12:18;10.18;;;6.78;;
40314;SDS011;26021;45.640;11.302;2023-12-20T06:14:44;13.32;;;6.75;;
40314;SDS011;26021;45.640;11.302;2023-12-20T06:17:09;9.68;;;6.63;;
40314;SDS011;26021;45.640;11.302;2023-12-20T06:19:35;9.35;;;6.15;;
40314;SDS011;26021;45.640;11.302;2023-12-20T06:22:00;11.65;;;6.05;;
40314;SDS011;26021;45.640;11.302;2023-12-20T06:24:25;9.88;;;6.57;;
40314;SDS011;26021;45.640;11.302;2023-12-20T06:26:53;11.73;;;7.82;;
40314;SDS011;26021;45.640;11.302;2023-12-20T06:29:19;11.55;;;7.72;;
40314;SDS011;26021;45.640;11.302;2023-12-20T06:31:45;13.35;;;8.05;;
40314;SDS011;26021;45.640;11.302;2023-12-20T06:34:10;13.75;;;8.98;;
40314;SDS011;26021;45.640;11.302;2023-12-20T06:36:36;13.52;;;8.50;;
40314;SDS011;26021;45.640;11.302;2023-12-20T06:39:01;16.63;;;10.68;;
40314;SDS011;26021;45.640;11.302;2023-12-20T06:41:27;19.17;;;10.65;;
40314;SDS011;26021;45.640;11.302;2023-12-20T06:43:53;15.40;;;10.07;;
40314;SDS011;26021;45.640;11.302;2023-12-20T06:46:18;17.08;;;10.10;;
40314;SDS011;26021;45.640;11.302;2023-12-20T06:48:44;14.45;;;9.93;;
40314;SDS011;26021;45.640;11.302;2023-12-20T06:51:13;18.42;;;9.90;;
40314;SDS011;26021;45.640;11.302;2023-12-20T06:53:40;16.48;;;10.40;;
40314;SDS011;26021;45.640;11.302;2023-12-20T06:56:05;17.02;;;9.63;;
40314;SDS011;26021;45.640;11.302;2023-12-20T06:58:32;19.00;;;9.85;;
40314;SDS011;26021;45.640;11.302;2023-12-20T07:00:58;15.75;;;9.85;;
40314;SDS011;26021;45.640;11.302;2023-12-20T07:03:23;19.58;;;12.75;;
40314;SDS011;26021;45.640;11.302;2023-12-20T07:05:49;20.88;;;11.45;;
40314;SDS011;26021;45.640;11.302;2023-12-20T07:08:14;24.45;;;12.82;;
40314;SDS011;26021;45.640;11.302;2023-12-20T07:10:40;17.85;;;12.23;;
40314;SDS011;26021;45.640;11.302;2023-12-20T07:13:06;16.90;;;10.50;;
40314;SDS011;26021;45.640;11.302;2023-12-20T07:15:33;19.90;;;11.27;;
40314;SDS011;26021;45.640;11.302;2023-12-20T07:17:58;21.58;;;11.52;;
40314;SDS011;26021;45.640;11.302;2023-12-20T07:20:25;18.73;;;10.57;;
40314;SDS011;26021;45.640;11.302;2023-12-20T07:22:51;21.77;;;14.18;;
40314;SDS011;26021;45.640;11.302;2023-12-20T07:25:16;21.45;;;13.60;;
40314;SDS011;26021;45.640;11.302;2023-12-20T07:27:42;23.02;;;14.85;;
40314;SDS011;26021;45.640;11.302;2023-12-20T07:30:07;20.80;;;12.75;;
40314;SDS011;26021;45.640;11.302;2023-12-20T07:32:33;23.38;;;14.10;;
40314;SDS011;26021;45.640;11.302;2023-12-20T07:34:59;19.25;;;12.38;;
40314;SDS011;26021;45.640;11.302;2023-12-20T07:37:24;19.55;;;10.73;;
40314;SDS011;26021;45.640;11.302;2023-12-20T07:39:50;16.08;;;10.45;;
40314;SDS011;26021;45.640;11.302;2023-12-20T07:42:15;20.50;;;11.85;;
40314;SDS011;26021;45.640;11.302;2023-12-20T07:44:40;19.33;;;12.00;;
40314;SDS011;26021;45.640;11.302;2023-12-20T07:47:06;19.50;;;11.43;;
40314;SDS011;26021;45.640;11.302;2023-12-20T07:49:32;21.80;;;12.00;;
40314;SDS011;26021;45.640;11.302;2023-12-20T07:51:57;50.47;;;28.15;;
40314;SDS011;26021;45.640;11.302;2023-12-20T07:54:23;47.35;;;21.95;;
40314;SDS011;26021;45.640;11.302;2023-12-20T07:56:48;66.75;;;33.78;;
40314;SDS011;26021;45.640;11.302;2023-12-20T07:59:14;35.67;;;17.95;;
40314;SDS011;26021;45.640;11.302;2023-12-20T08:01:40;30.00;;;16.48;;
40314;SDS011;26021;45.640;11.302;2023-12-20T08:04:05;41.53;;;22.38;;
40314;SDS011;26021;45.640;11.302;2023-12-20T08:06:31;59.25;;;33.17;;
40314;SDS011;26021;45.640;11.302;2023-12-20T08:08:56;70.45;;;36.97;;
40314;SDS011;26021;45.640;11.302;2023-12-20T08:11:22;36.78;;;21.65;;
40314;SDS011;26021;45.640;11.302;2023-12-20T08:13:47;45.55;;;26.67;;
40314;SDS011;26021;45.640;11.302;2023-12-20T08:16:13;30.17;;;18.85;;
40314;SDS011;26021;45.640;11.302;2023-12-20T08:18:40;27.33;;;16.58;;
40314;SDS011;26021;45.640;11.302;2023-12-20T08:21:06;36.67;;;22.35;;
40314;SDS011;26021;45.640;11.302;2023-12-20T08:23:33;41.05;;;23.42;;
40314;SDS011;26021;45.640;11.302;2023-12-20T08:26:03;36.75;;;20.08;;
40314;SDS011;26021;45.640;11.302;2023-12-20T08:28:29;33.00;;;20.02;;
40314;SDS011;26021;45.640;11.302;2023-12-20T08:30:56;34.17;;;19.90;;
40314;SDS011;26021;45.640;11.302;2023-12-20T08:33:21;31.08;;;21.27;;
40314;SDS011;26021;45.640;11.302;2023-12-20T08:35:47;33.13;;;20.45;;
40314;SDS011;26021;45.640;11.302;2023-12-20T08:38:12;33.97;;;20.77;;
40314;SDS011;26021;45.640;11.302;2023-12-20T08:40:38;35.08;;;22.92;;
40314;SDS011;26021;45.640;11.302;2023-12-20T08:43:03;40.00;;;23.95;;
40314;SDS011;26021;45.640;11.302;2023-12-20T08:45:29;50.85;;;32.75;;
40314;SDS011;26021;45.640;11.302;2023-12-20T08:47:54;45.50;;;33.45;;
40314;SDS011;26021;45.640;11.302;2023-12-20T08:50:20;52.08;;;33.95;;
40314;SDS011;26021;45.640;11.302;2023-12-20T08:52:45;45.03;;;31.10;;
40314;SDS011;26021;45.640;11.302;2023-12-20T08:55:11;42.83;;;27.67;;
40314;SDS011;26021;45.640;11.302;2023-12-20T08:57:36;32.47;;;22.20;;
40314;SDS011;26021;45.640;11.302;2023-12-20T09:00:02;35.72;;;24.05;;
40314;SDS011;26021;45.640;11.302;2023-12-20T09:02:28;39.33;;;25.30;;
40314;SDS011;26021;45.640;11.302;2023-12-20T09:04:54;40.38;;;27.00;;
40314;SDS011;26021;45.640;11.302;2023-12-20T09:07:23;44.80;;;28.33;;
40314;SDS011;26021;45.640;11.302;2023-12-20T09:09:50;41.65;;;26.02;;
40314;SDS011;26021;45.640;11.302;2023-12-20T09:12:19;54.45;;;32.05;;
40314;SDS011;26021;45.640;11.302;2023-12-20T09:14:46;62.80;;;40.75;;
40314;SDS011;26021;45.640;11.302;2023-12-20T09:17:12;60.90;;;38.53;;
40314;SDS011;26021;45.640;11.302;2023-12-20T09:19:37;96.75;;;33.42;;
40314;SDS011;26021;45.640;11.302;2023-12-20T09:22:04;73.53;;;25.02;;
40314;SDS011;26021;45.640;11.302;2023-12-20T09:24:30;59.22;;;29.20;;
40314;SDS011;26021;45.640;11.302;2023-12-20T09:26:56;50.83;;;26.33;;
40314;SDS011;26021;45.640;11.302;2023-12-20T09:29:21;42.97;;;24.02;;
40314;SDS011;26021;45.640;11.302;2023-12-20T09:31:47;32.95;;;21.05;;
40314;SDS011;26021;45.640;11.302;2023-12-20T09:34:14;36.88;;;21.42;;
40314;SDS011;26021;45.640;11.302;2023-12-20T09:36:40;28.83;;;18.00;;
40314;SDS011;26021;45.640;11.302;2023-12-20T09:39:11;31.67;;;19.33;;
40314;SDS011;26021;45.640;11.302;2023-12-20T09:41:37;32.35;;;19.63;;
40314;SDS011;26021;45.640;11.302;2023-12-20T09:44:11;33.95;;;16.83;;
40314;SDS011;26021;45.640;11.302;2023-12-20T09:46:39;29.48;;;18.27;;
40314;SDS011;26021;45.640;11.302;2023-12-20T09:49:08;34.38;;;22.98;;
40314;SDS011;26021;45.640;11.302;2023-12-20T09:51:35;35.65;;;21.90;;
40314;SDS011;26021;45.640;11.302;2023-12-20T09:54:02;31.63;;;21.17;;
40314;SDS011;26021;45.640;11.302;2023-12-20T09:56:29;38.65;;;21.55;;
40314;SDS011;26021;45.640;11.302;2023-12-20T09:58:54;31.80;;;20.75;;
40314;SDS011;26021;45.640;11.302;2023-12-20T10:01:20;31.42;;;21.17;;
40314;SDS011;26021;45.640;11.302;2023-12-20T10:03:46;31.98;;;20.77;;
40314;SDS011;26021;45.640;11.302;2023-12-20T10:06:11;34.50;;;21.17;;
40314;SDS011;26021;45.640;11.302;2023-12-20T10:08:38;33.92;;;22.95;;
40314;SDS011;26021;45.640;11.302;2023-12-20T10:11:04;38.30;;;25.65;;
40314;SDS011;26021;45.640;11.302;2023-12-20T10:13:30;31.33;;;21.42;;
40314;SDS011;26021;45.640;11.302;2023-12-20T10:15:56;39.58;;;20.17;;
40314;SDS011;26021;45.640;11.302;2023-12-20T10:18:22;31.20;;;18.95;;
40314;SDS011;26021;45.640;11.302;2023-12-20T10:20:48;34.50;;;20.85;;
40314;SDS011;26021;45.640;11.302;2023-12-20T10:23:13;32.47;;;19.23;;
40314;SDS011;26021;45.640;11.302;2023-12-20T10:25:40;28.02;;;18.20;;
40314;SDS011;26021;45.640;11.302;2023-12-20T10:28:10;24.75;;;17.02;;
40314;SDS011;26021;45.640;11.302;2023-12-20T10:30:37;31.15;;;20.92;;
40314;SDS011;26021;45.640;11.302;2023-12-20T10:33:05;31.63;;;20.45;;
40314;SDS011;26021;45.640;11.302;2023-12-20T10:35:30;27.98;;;20.63;;
40314;SDS011;26021;45.640;11.302;2023-12-20T10:37:56;27.50;;;19.52;;
40314;SDS011;26021;45.640;11.302;2023-12-20T10:40:23;34.80;;;21.52;;
40314;SDS011;26021;45.640;11.302;2023-12-20T10:42:52;40.28;;;23.70;;
40314;SDS011;26021;45.640;11.302;2023-12-20T10:45:18;36.97;;;21.83;;
40314;SDS011;26021;45.640;11.302;2023-12-20T10:47:45;39.38;;;23.15;;
40314;SDS011;26021;45.640;11.302;2023-12-20T10:50:11;89.15;;;26.13;;
40314;SDS011;26021;45.640;11.302;2023-12-20T10:52:37;64.28;;;23.05;;
40314;SDS011;26021;45.640;11.302;2023-12-20T10:55:04;34.15;;;20.70;;
40314;SDS011;26021;45.640;11.302;2023-12-20T10:57:30;28.90;;;21.20;;
40314;SDS011;26021;45.640;11.302;2023-12-20T10:59:55;31.95;;;20.73;;
40314;SDS011;26021;45.640;11.302;2023-12-20T11:02:31;31.75;;;20.10;;
40314;SDS011;26021;45.640;11.302;2023-12-20T11:07:40;30.83;;;18.70;;
40314;SDS011;26021;45.640;11.302;2023-12-20T11:10:18;39.97;;;24.95;;
40314;SDS011;26021;45.640;11.302;2023-12-20T11:15:22;46.17;;;29.20;;
40314;SDS011;26021;45.640;11.302;2023-12-20T11:17:56;41.50;;;23.33;;
40314;SDS011;26021;45.640;11.302;2023-12-20T11:20:24;52.88;;;31.63;;
40314;SDS011;26021;45.640;11.302;2023-12-20T11:23:03;77.05;;;43.67;;
40314;SDS011;26021;45.640;11.302;2023-12-20T11:25:29;68.15;;;39.58;;
40314;SDS011;26021;45.640;11.302;2023-12-20T11:28:09;55.08;;;32.97;;
40314;SDS011;26021;45.640;11.302;2023-12-20T11:33:15;47.30;;;29.75;;
40314;SDS011;26021;45.640;11.302;2023-12-20T11:35:41;43.80;;;27.50;;
40314;SDS011;26021;45.640;11.302;2023-12-20T11:38:08;42.15;;;26.90;;
40314;SDS011;26021;45.640;11.302;2023-12-20T11:40:35;34.63;;;23.30;;
40314;SDS011;26021;45.640;11.302;2023-12-20T11:43:02;35.38;;;24.35;;
40314;SDS011;26021;45.640;11.302;2023-12-20T11:45:28;37.17;;;25.20;;
40314;SDS011;26021;45.640;11.302;2023-12-20T11:47:53;33.53;;;24.10;;
40314;SDS011;26021;45.640;11.302;2023-12-20T11:50:20;39.28;;;26.52;;
40314;SDS011;26021;45.640;11.302;2023-12-20T11:52:46;35.83;;;25.25;;
40314;SDS011;26021;45.640;11.302;2023-12-20T11:55:12;35.90;;;25.98;;
40314;SDS011;26021;45.640;11.302;2023-12-20T11:57:38;36.10;;;24.90;;
40314;SDS011;26021;45.640;11.302;2023-12-20T12:00:04;37.40;;;24.77;;
40314;SDS011;26021;45.640;11.302;2023-12-20T12:02:31;31.25;;;22.80;;
40314;SDS011;26021;45.640;11.302;2023-12-20T12:04:57;36.08;;;25.50;;
40314;SDS011;26021;45.640;11.302;2023-12-20T12:07:23;36.90;;;25.42;;
40314;SDS011;26021;45.640;11.302;2023-12-20T12:09:49;36.72;;;26.85;;
40314;SDS011;26021;45.640;11.302;2023-12-20T12:12:15;36.10;;;26.30;;
40314;SDS011;26021;45.640;11.302;2023-12-20T12:14:40;35.20;;;25.70;;
40314;SDS011;26021;45.640;11.302;2023-12-20T12:17:12;38.35;;;26.63;;
40314;SDS011;26021;45.640;11.302;2023-12-20T12:19:39;38.28;;;25.63;;
40314;SDS011;26021;45.640;11.302;2023-12-20T12:22:22;38.13;;;27.45;;
40314;SDS011;26021;45.640;11.302;2023-12-20T12:24:51;47.40;;;31.08;;
40314;SDS011;26021;45.640;11.302;2023-12-20T12:27:17;34.88;;;24.73;;
40314;SDS011;26021;45.640;11.302;2023-12-20T12:30:00;37.33;;;27.00;;
40314;SDS011;26021;45.640;11.302;2023-12-20T12:32:27;36.40;;;26.42;;
40314;SDS011;26021;45.640;11.302;2023-12-20T12:34:53;34.10;;;25.00;;
40314;SDS011;26021;45.640;11.302;2023-12-20T12:37:18;38.00;;;27.40;;
40314;SDS011;26021;45.640;11.302;2023-12-20T12:39:44;36.03;;;26.23;;
40314;SDS011;26021;45.640;11.302;2023-12-20T12:42:12;38.95;;;27.98;;
40314;SDS011;26021;45.640;11.302;2023-12-20T12:44:37;39.50;;;24.98;;
40314;SDS011;26021;45.640;11.302;2023-12-20T12:47:02;30.75;;;22.20;;
40314;SDS011;26021;45.640;11.302;2023-12-20T12:49:28;34.72;;;22.88;;
40314;SDS011;26021;45.640;11.302;2023-12-20T12:51:54;36.95;;;26.73;;
40314;SDS011;26021;45.640;11.302;2023-12-20T12:54:23;36.65;;;24.55;;
40314;SDS011;26021;45.640;11.302;2023-12-20T12:56:48;32.42;;;21.73;;
40314;SDS011;26021;45.640;11.302;2023-12-20T12:59:15;39.60;;;23.25;;
40314;SDS011;26021;45.640;11.302;2023-12-20T13:01:41;33.67;;;22.63;;
40314;SDS011;26021;45.640;11.302;2023-12-20T13:04:06;32.50;;;24.00;;
40314;SDS011;26021;45.640;11.302;2023-12-20T13:06:36;36.83;;;24.77;;
40314;SDS011;26021;45.640;11.302;2023-12-20T13:09:02;39.00;;;24.15;;
40314;SDS011;26021;45.640;11.302;2023-12-20T13:11:29;44.58;;;36.00;;
40314;SDS011;26021;45.640;11.302;2023-12-20T13:13:56;34.72;;;25.58;;
40314;SDS011;26021;45.640;11.302;2023-12-20T13:16:23;33.08;;;21.77;;
40314;SDS011;26021;45.640;11.302;2023-12-20T13:18:49;36.08;;;23.42;;
40314;SDS011;26021;45.640;11.302;2023-12-20T13:21:15;32.22;;;23.77;;
40314;SDS011;26021;45.640;11.302;2023-12-20T13:23:41;41.78;;;28.33;;
40314;SDS011;26021;45.640;11.302;2023-12-20T13:26:06;38.15;;;26.77;;
40314;SDS011;26021;45.640;11.302;2023-12-20T13:28:32;37.97;;;26.15;;
40314;SDS011;26021;45.640;11.302;2023-12-20T13:30:58;39.08;;;23.73;;
40314;SDS011;26021;45.640;11.302;2023-12-20T13:33:23;29.65;;;21.05;;
40314;SDS011;26021;45.640;11.302;2023-12-20T13:35:48;31.33;;;22.05;;
40314;SDS011;26021;45.640;11.302;2023-12-20T13:38:14;32.47;;;21.92;;
40314;SDS011;26021;45.640;11.302;2023-12-20T13:40:40;30.95;;;22.13;;
40314;SDS011;26021;45.640;11.302;2023-12-20T13:43:05;29.63;;;21.13;;
40314;SDS011;26021;45.640;11.302;2023-12-20T13:45:31;62.95;;;28.55;;
40314;SDS011;26021;45.640;11.302;2023-12-20T13:47:56;43.60;;;22.88;;
40314;SDS011;26021;45.640;11.302;2023-12-20T13:50:23;46.95;;;24.85;;
40314;SDS011;26021;45.640;11.302;2023-12-20T13:52:49;48.03;;;24.40;;
40314;SDS011;26021;45.640;11.302;2023-12-20T13:55:14;33.25;;;19.80;;
40314;SDS011;26021;45.640;11.302;2023-12-20T13:57:40;25.58;;;17.00;;
40314;SDS011;26021;45.640;11.302;2023-12-20T14:00:06;26.25;;;17.15;;
40314;SDS011;26021;45.640;11.302;2023-12-20T14:02:39;25.27;;;16.65;;
40314;SDS011;26021;45.640;11.302;2023-12-20T14:05:05;23.73;;;16.92;;
40314;SDS011;26021;45.640;11.302;2023-12-20T14:07:31;37.70;;;27.55;;
40314;SDS011;26021;45.640;11.302;2023-12-20T14:09:57;46.10;;;33.20;;
40314;SDS011;26021;45.640;11.302;2023-12-20T14:12:24;44.53;;;28.60;;
40314;SDS011;26021;45.640;11.302;2023-12-20T14:14:50;66.03;;;38.05;;
40314;SDS011;26021;45.640;11.302;2023-12-20T14:17:15;55.55;;;30.45;;
40314;SDS011;26021;45.640;11.302;2023-12-20T14:19:41;52.67;;;29.83;;
40314;SDS011;26021;45.640;11.302;2023-12-20T14:22:06;47.00;;;27.88;;